Time;durP1;ratioP1;P1;durP2;ratioP2;P2;SDS_P1;SDS_P2;PMS_P1;PMS_P2;Temp;Humidity;BMP_temperature;BMP_pressure;BME280_temperature;BME280_humidity;BME280_pressure;Samples;Min_cycle;Max_cycle;Signal;HPM_P1;HPM_P2
2022/08/01 00:00:38;;;;;;;12.02;2.67;;;27.30;99.90;;;;;;5051166;28;20033;-70
2022/08/01 00:03:04;;;;;;;8.18;2.50;;;27.20;99.90;;;;;;5050813;28;20110;-70
2022/08/01 00:05:30;;;;;;;;;;;27.20;99.90;;;;;;5051128;28;20028;-70
2022/08/01 00:07:56;;;;;;;;;;;27.20;99.90;;;;;;5051116;28;19905;-71
2022/08/01 00:10:22;;;;;;;7.68;2.85;;;27.20;99.90;;;;;;5051219;28;19905;-71
2022/08/01 00:12:48;;;;;;;;;;;27.20;99.90;;;;;;5051044;28;20043;-71
2022/08/01 00:15:15;;;;;;;;;;;27.20;99.90;;;;;;5050659;28;20439;-70
2022/08/01 00:17:42;;;;;;;7.30;2.30;;;27.20;99.90;;;;;;5049338;28;20455;-70
2022/08/01 00:20:11;;;;;;;6.80;2.42;;;27.20;99.90;;;;;;5051183;28;20025;-71
2022/08/01 00:22:37;;;;;;;6.60;2.60;;;27.10;99.90;;;;;;5050492;28;20037;-71
2022/08/01 00:25:05;;;;;;;5.78;2.38;;;27.20;99.90;;;;;;5050154;28;20053;-71
2022/08/01 00:27:31;;;;;;;7.40;2.40;;;27.10;99.90;;;;;;5050838;28;20029;-71
2022/08/01 00:29:57;;;;;;;;;;;27.10;99.90;;;;;;5050876;28;20029;-70
2022/08/01 00:32:23;;;;;;;;;;;27.10;99.90;;;;;;5050964;28;20345;-70
2022/08/01 00:34:49;;;;;;;;;;;27.00;99.90;;;;;;5050691;28;19953;-71
2022/08/01 00:37:15;;;;;;;;;;;27.00;99.90;;;;;;5050724;28;19905;-72
2022/08/01 00:39:42;;;;;;;4.57;2.30;;;26.90;99.90;;;;;;5050382;28;19908;-70
2022/08/01 00:42:10;;;;;;;7.75;2.55;;;27.00;99.90;;;;;;5050459;28;20025;-70
2022/08/01 00:44:36;;;;;;;6.15;2.30;;;27.00;99.90;;;;;;5050217;28;20051;-70
2022/08/01 00:47:03;;;;;;;7.90;2.50;;;27.00;99.90;;;;;;5050174;28;20033;-70
2022/08/01 00:49:29;;;;;;;6.43;2.50;;;26.90;99.90;;;;;;5050549;28;20060;-70
2022/08/01 00:51:56;;;;;;;5.47;2.50;;;26.90;99.90;;;;;;5050568;28;20136;-70
2022/08/01 00:54:26;;;;;;;7.80;2.88;;;26.90;99.90;;;;;;5050059;28;20073;-71
2022/08/01 00:56:54;;;;;;;9.88;2.78;;;26.90;99.90;;;;;;5050422;28;20099;-70
2022/08/01 00:59:22;;;;;;;8.32;2.65;;;26.90;99.90;;;;;;5050148;28;20339;-70
2022/08/01 01:01:49;;;;;;;7.40;2.58;;;26.90;99.90;;;;;;5049997;28;20036;-71
2022/08/01 01:04:15;;;;;;;6.60;2.55;;;26.90;99.90;;;;;;5048459;28;20025;-71
2022/08/01 01:06:51;;;;;;;;;;;26.90;99.90;;;;;;5050979;28;20055;-70
2022/08/01 01:09:44;;;;;;;8.82;2.38;;;26.80;99.90;;;;;;5050273;28;19905;-71
2022/08/01 01:12:31;;;;;;;7.00;2.42;;;26.70;99.90;;;;;;5050384;28;20060;-70
2022/08/01 01:15:29;;;;;;;6.30;3.10;;;26.60;99.90;;;;;;5050024;28;20021;-70
2022/08/01 01:18:07;;;;;;;10.82;2.92;;;26.50;99.90;;;;;;5048768;28;20044;-69
2022/08/01 01:20:48;;;;;;;6.35;2.72;;;26.40;99.90;;;;;;5050071;28;20104;-69
2022/08/01 01:23:17;;;;;;;7.72;2.53;;;26.40;99.90;;;;;;5050399;28;20049;-70
2022/08/01 01:26:24;;;;;;;5.82;2.75;;;26.30;99.90;;;;;;5050277;28;20074;-69
2022/08/01 01:29:13;;;;;;;5.80;2.60;;;26.30;99.90;;;;;;5029159;28;20091;-71
2022/08/01 01:31:51;;;;;;;8.00;2.42;;;26.30;99.90;;;;;;5031637;28;20025;-69
2022/08/01 01:34:20;;;;;;;8.10;2.80;;;26.30;99.90;;;;;;5031696;28;20025;-70
2022/08/01 01:36:48;;;;;;;7.68;2.90;;;26.30;99.90;;;;;;5031506;28;20367;-70
2022/08/01 01:39:15;;;;;;;6.75;2.65;;;26.40;99.90;;;;;;5031202;28;20343;-69
2022/08/01 01:41:44;;;;;;;7.05;2.80;;;26.40;99.90;;;;;;5031056;28;20048;-71
2022/08/01 01:44:11;;;;;;;7.03;2.30;;;26.40;99.90;;;;;;5030906;28;20097;-70
2022/08/01 01:46:38;;;;;;;6.28;2.70;;;26.30;99.90;;;;;;5031337;28;20568;-71
2022/08/01 01:49:09;;;;;;;10.40;2.72;;;26.30;99.90;;;;;;5031107;28;20025;-71
2022/08/01 01:51:37;;;;;;;7.70;2.85;;;26.20;99.90;;;;;;5031295;28;20056;-70
2022/08/01 01:54:04;;;;;;;9.82;2.90;;;26.20;99.90;;;;;;5030851;28;20108;-70
2022/08/01 01:56:31;;;;;;;6.88;2.40;;;26.20;99.90;;;;;;5030893;28;20123;-70
2022/08/01 01:59:01;;;;;;;7.35;2.47;;;26.10;99.90;;;;;;5030912;28;20120;-70
2022/08/01 02:01:31;;;;;;;6.60;2.65;;;26.20;99.90;;;;;;5031080;28;20053;-70
2022/08/01 02:03:58;;;;;;;10.38;2.72;;;26.10;99.90;;;;;;5032089;28;20358;-70
2022/08/01 02:06:26;;;;;;;7.93;3.15;;;26.20;99.90;;;;;;5053029;28;20023;-69
2022/08/01 02:08:54;;;;;;;8.30;2.55;;;26.20;99.90;;;;;;5052620;28;20037;-69
2022/08/01 02:11:21;;;;;;;5.32;2.60;;;26.10;99.90;;;;;;5052942;28;20028;-70
2022/08/01 02:14:03;;;;;;;6.90;2.47;;;26.20;99.90;;;;;;5052710;28;20182;-70
2022/08/01 02:16:34;;;;;;;6.30;2.53;;;26.20;99.90;;;;;;5053019;28;20507;-70
2022/08/01 02:19:00;;;;;;;6.30;2.40;;;26.20;99.90;;;;;;5052589;28;20389;-70
2022/08/01 02:21:41;;;;;;;7.20;2.55;;;26.20;99.90;;;;;;5052898;28;20083;-69
2022/08/01 02:24:31;;;;;;;4.90;2.55;;;26.20;99.90;;;;;;5052524;28;20159;-70
2022/08/01 02:27:01;;;;;;;8.90;2.40;;;26.20;99.90;;;;;;5052803;28;20059;-70
2022/08/01 02:29:42;;;;;;;12.27;2.72;;;26.20;99.90;;;;;;5052490;28;20037;-71
2022/08/01 02:32:13;;;;;;;8.57;2.38;;;26.20;99.90;;;;;;5052359;28;20091;-71
2022/08/01 02:34:41;;;;;;;7.07;2.60;;;26.20;99.90;;;;;;5052388;28;20561;-71
2022/08/01 02:37:08;;;;;;;6.43;2.53;;;26.20;99.90;;;;;;5051814;28;20028;-71
2022/08/01 02:39:37;;;;;;;6.90;2.30;;;26.20;99.90;;;;;;5051974;28;20044;-71
2022/08/01 02:42:07;;;;;;;6.55;2.60;;;26.10;99.90;;;;;;5051794;28;20032;-70
2022/08/01 02:44:39;;;;;;;8.23;2.42;;;26.10;99.90;;;;;;5050459;28;20366;-70
2022/08/01 02:47:06;;;;;;;7.78;2.67;;;26.10;99.90;;;;;;5051819;28;20410;-70
2022/08/01 02:49:36;;;;;;;7.03;2.53;;;26.10;99.90;;;;;;5051578;28;20060;-70
2022/08/01 02:52:06;;;;;;;8.20;2.72;;;26.10;99.90;;;;;;5052103;28;20035;-71
2022/08/01 02:54:34;;;;;;;8.90;2.63;;;26.20;99.90;;;;;;5052030;28;20037;-70
2022/08/01 02:57:02;;;;;;;8.52;2.70;;;26.20;99.90;;;;;;5051687;28;20025;-70
2022/08/01 02:59:31;;;;;;;8.50;2.40;;;26.10;99.90;;;;;;5051649;28;20043;-70
2022/08/01 03:01:59;;;;;;;6.25;2.70;;;26.10;99.90;;;;;;5050720;28;20069;-69
2022/08/01 03:04:26;;;;;;;7.75;2.50;;;26.10;99.90;;;;;;5050714;28;20052;-70
2022/08/01 03:06:54;;;;;;;7.82;2.50;;;26.10;99.90;;;;;;5051024;28;20071;-70
2022/08/01 03:09:21;;;;;;;9.02;2.67;;;26.00;99.90;;;;;;5051119;28;20081;-71
2022/08/01 03:11:49;;;;;;;9.35;2.58;;;26.00;99.90;;;;;;5051021;28;20036;-70
2022/08/01 03:14:17;;;;;;;9.82;2.53;;;26.00;99.90;;;;;;5050985;28;20119;-70
2022/08/01 03:16:45;;;;;;;7.43;2.70;;;26.00;99.90;;;;;;5051338;28;20037;-70
2022/08/01 03:19:13;;;;;;;10.77;2.38;;;26.10;99.90;;;;;;5049547;28;20355;-70
2022/08/01 03:21:42;;;;;;;8.20;2.50;;;26.10;99.90;;;;;;5051838;28;20036;-71
2022/08/01 03:24:11;;;;;;;8.40;2.75;;;26.10;99.90;;;;;;5051824;28;20527;-72
2022/08/01 03:26:39;;;;;;;8.65;2.75;;;26.10;99.90;;;;;;5052201;28;20021;-70
2022/08/01 03:29:10;;;;;;;6.00;2.50;;;26.10;99.90;;;;;;5051874;28;20104;-70
2022/08/01 03:31:38;;;;;;;6.15;3.00;;;26.00;99.90;;;;;;5051911;28;20029;-70
2022/08/01 03:34:05;;;;;;;7.38;2.70;;;26.00;99.90;;;;;;5051782;28;20021;-70
2022/08/01 03:36:33;;;;;;;6.85;2.70;;;25.90;99.90;;;;;;5051536;28;20463;-70
2022/08/01 03:39:03;;;;;;;9.63;2.92;;;25.80;99.90;;;;;;5051732;28;20071;-70
2022/08/01 03:41:39;;;;;;;14.52;2.67;;;25.80;99.90;;;;;;5051678;28;20115;-70
2022/08/01 03:44:10;;;;;;;9.13;2.85;;;25.90;99.90;;;;;;5051762;28;20021;-70
2022/08/01 03:46:43;;;;;;;6.45;2.63;;;25.80;99.90;;;;;;5051491;28;20021;-70
2022/08/01 03:49:17;;;;;;;8.65;3.20;;;25.80;99.90;;;;;;5051921;28;20052;-70
2022/08/01 03:51:49;;;;;;;9.38;3.03;;;25.80;99.90;;;;;;5050863;28;20044;-69
2022/08/01 03:54:20;;;;;;;6.22;2.47;;;25.80;99.90;;;;;;5051112;28;20027;-70
2022/08/01 03:56:48;;;;;;;8.80;2.58;;;25.80;99.90;;;;;;5051393;28;20091;-70
2022/08/01 03:59:16;;;;;;;6.93;2.90;;;25.80;99.90;;;;;;5051373;28;20116;-70
2022/08/01 04:01:44;;;;;;;7.70;2.60;;;25.90;99.90;;;;;;5051143;28;20029;-71
2022/08/01 04:04:11;;;;;;;9.10;2.45;;;25.80;99.90;;;;;;5051021;28;20033;-70
2022/08/01 04:06:38;;;;;;;6.35;2.28;;;25.90;99.90;;;;;;5051359;28;20095;-70
2022/08/01 04:09:04;;;;;;;8.25;2.83;;;25.80;99.90;;;;;;5051073;28;20033;-70
2022/08/01 04:11:31;;;;;;;8.10;2.53;;;25.80;99.90;;;;;;5051030;28;20021;-71
2022/08/01 04:13:57;;;;;;;7.85;2.60;;;25.80;99.90;;;;;;5050899;28;20033;-70
2022/08/01 04:16:23;;;;;;;7.07;2.72;;;25.70;99.90;;;;;;5050943;28;20423;-70
2022/08/01 04:18:49;;;;;;;5.97;3.08;;;25.70;99.90;;;;;;5049528;28;20025;-70
2022/08/01 04:21:19;;;;;;;8.45;2.72;;;25.70;99.90;;;;;;5051109;28;20025;-70
2022/08/01 04:23:46;;;;;;;8.38;2.67;;;25.70;99.90;;;;;;5051178;28;20049;-70
2022/08/01 04:26:14;;;;;;;8.00;2.85;;;25.70;99.90;;;;;;5052245;28;20507;-70
2022/08/01 04:28:41;;;;;;;9.07;2.70;;;25.70;99.90;;;;;;5052445;28;20025;-70
2022/08/01 04:31:12;;;;;;;8.55;2.70;;;25.70;99.90;;;;;;5052208;28;20128;-70
2022/08/01 04:33:45;;;;;;;8.68;2.83;;;25.70;99.90;;;;;;5051953;28;20090;-71
2022/08/01 04:36:14;;;;;;;10.07;3.03;;;25.70;99.90;;;;;;5052230;28;20039;-70
2022/08/01 04:38:43;;;;;;;7.25;2.67;;;25.70;99.90;;;;;;5052098;28;20027;-71
2022/08/01 04:41:12;;;;;;;7.88;2.70;;;25.70;99.90;;;;;;5052385;28;20481;-70
2022/08/01 04:43:39;;;;;;;8.02;2.47;;;25.70;99.90;;;;;;5052462;28;20461;-70
2022/08/01 04:46:07;;;;;;;9.75;2.88;;;25.80;99.90;;;;;;5052355;28;20477;-70
2022/08/01 04:48:36;;;;;;;6.07;2.83;;;25.70;99.90;;;;;;5052653;28;20174;-70
2022/08/01 04:51:03;;;;;;;5.80;2.63;;;25.80;99.90;;;;;;5052195;28;20511;-70
2022/08/01 04:53:32;;;;;;;8.65;2.72;;;25.90;99.90;;;;;;5052006;28;20029;-70
2022/08/01 04:55:58;;;;;;;11.82;2.78;;;25.90;99.90;;;;;;5051541;28;20070;-71
2022/08/01 04:58:24;;;;;;;7.63;2.28;;;25.90;99.90;;;;;;5051945;28;20053;-70
2022/08/01 05:00:50;;;;;;;7.20;2.55;;;25.90;99.90;;;;;;5052277;28;20021;-70
2022/08/01 05:03:16;;;;;;;6.85;2.40;;;26.00;99.90;;;;;;5052606;28;20047;-71
2022/08/01 05:05:42;;;;;;;6.75;2.58;;;26.00;99.90;;;;;;5056122;28;20029;-70
2022/08/01 05:08:08;;;;;;;7.30;2.70;;;26.00;99.90;;;;;;5055840;28;20021;-70
2022/08/01 05:10:34;;;;;;;5.25;2.50;;;26.10;99.90;;;;;;5056264;28;20033;-70
2022/08/01 05:13:01;;;;;;;11.23;2.95;;;26.10;99.90;;;;;;5055095;28;20021;-70
2022/08/01 05:15:27;;;;;;;8.38;2.65;;;26.10;99.90;;;;;;5054896;28;20519;-70
2022/08/01 05:17:53;;;;;;;8.18;2.75;;;26.10;99.90;;;;;;5055690;28;20021;-70
2022/08/01 05:20:19;;;;;;;10.30;2.60;;;26.20;99.90;;;;;;5055158;28;20024;-71
2022/08/01 05:22:45;;;;;;;8.27;2.92;;;26.40;99.90;;;;;;5055626;28;20099;-70
2022/08/01 05:25:11;;;;;;;10.15;2.38;;;26.60;99.90;;;;;;5055216;28;20137;-70
2022/08/01 05:27:40;;;;;;;7.35;2.50;;;27.80;99.90;;;;;;5053559;28;20064;-71
2022/08/01 05:30:09;;;;;;;7.45;2.42;;;29.10;99.90;;;;;;5055031;28;20032;-70
2022/08/01 05:32:36;;;;;;;6.65;2.38;;;30.80;99.90;;;;;;5054846;28;20032;-70
2022/08/01 05:35:03;;;;;;;8.77;2.00;;;31.80;99.90;;;;;;5054762;28;20094;-71
2022/08/01 05:37:29;;;;;;;6.70;2.15;;;32.30;99.90;;;;;;5055233;28;20025;-70
2022/08/01 05:39:55;;;;;;;10.60;2.10;;;32.60;99.90;;;;;;5055084;28;20192;-71
2022/08/01 05:42:21;;;;;;;6.18;2.30;;;32.80;99.90;;;;;;5054844;28;20021;-71
2022/08/01 05:44:47;;;;;;;;;;;33.00;99.90;;;;;;5055156;28;20421;-71
2022/08/01 05:47:14;;;;;;;7.97;1.95;;;33.60;99.90;;;;;;5055007;28;19935;-70
2022/08/01 05:49:40;;;;;;;11.20;2.13;;;34.20;99.90;;;;;;5053377;28;20029;-71
2022/08/01 05:52:05;;;;;;;;;;;34.90;99.90;;;;;;5054751;28;20067;-71
2022/08/01 05:54:31;;;;;;;5.97;1.70;;;36.10;99.90;;;;;;5054139;28;19966;-72
2022/08/01 05:57:01;;;;;;;6.10;1.70;;;36.30;97.90;;;;;;5053949;28;20393;-71
2022/08/01 05:59:28;;;;;;;6.78;1.98;;;36.30;97.80;;;;;;5054670;28;20109;-71
2022/08/01 06:01:54;;;;;;;6.18;1.58;;;36.00;97.80;;;;;;5054086;28;20111;-71
2022/08/01 06:04:20;;;;;;;5.65;1.77;;;36.00;97.20;;;;;;5054350;28;20029;-72
2022/08/01 06:06:47;;;;;;;7.75;1.90;;;36.10;97.20;;;;;;5054603;28;20075;-71
2022/08/01 06:09:13;;;;;;;7.75;1.83;;;36.40;96.40;;;;;;5053992;28;20025;-71
2022/08/01 06:11:39;;;;;;;6.47;1.90;;;36.50;96.30;;;;;;5053988;28;20097;-72
2022/08/01 06:14:05;;;;;;;10.00;1.77;;;37.30;95.60;;;;;;5054495;28;20025;-72
2022/08/01 06:16:31;;;;;;;7.25;2.28;;;38.20;94.30;;;;;;5053404;28;20087;-72
2022/08/01 06:18:57;;;;;;;4.63;1.45;;;38.60;93.00;;;;;;5055125;28;20029;-72
2022/08/01 06:21:23;;;;;;;7.18;2.35;;;37.90;92.90;;;;;;5054819;28;20143;-72
2022/08/01 06:23:49;;;;;;;5.80;1.90;;;37.50;93.80;;;;;;5054202;28;20335;-72
2022/08/01 06:26:18;;;;;;;9.13;1.60;;;37.70;93.20;;;;;;5054206;28;20047;-71
2022/08/01 06:28:44;;;;;;;6.80;1.77;;;37.30;93.40;;;;;;5054068;28;20159;-72
2022/08/01 06:31:12;;;;;;;6.72;1.60;;;38.40;92.00;;;;;;5053872;28;20181;-71
2022/08/01 06:33:38;;;;;;;11.10;1.88;;;38.20;92.20;;;;;;5054622;28;20025;-72
2022/08/01 06:36:04;;;;;;;5.75;1.60;;;38.00;91.90;;;;;;5054291;28;20103;-72
2022/08/01 06:38:30;;;;;;;7.80;1.65;;;38.70;91.60;;;;;;5054064;28;20446;-72
2022/08/01 06:40:57;;;;;;;5.35;1.27;;;39.70;89.90;;;;;;5053982;28;20505;-73
2022/08/01 06:43:23;;;;;;;6.10;1.60;;;40.80;87.20;;;;;;5054166;28;20318;-72
2022/08/01 06:45:49;;;;;;;7.35;1.60;;;41.00;84.90;;;;;;5054102;28;20159;-72
2022/08/01 06:48:15;;;;;;;7.53;1.88;;;40.60;84.80;;;;;;5053748;28;20025;-72
2022/08/01 06:50:41;;;;;;;7.93;1.67;;;41.50;82.60;;;;;;5053876;28;20025;-69
2022/08/01 06:53:07;;;;;;;6.75;1.67;;;40.70;83.80;;;;;;5054214;28;20040;-70
2022/08/01 06:55:34;;;;;;;8.30;1.75;;;40.30;83.60;;;;;;5053984;28;20033;-70
2022/08/01 06:58:00;;;;;;;17.95;2.55;;;40.40;83.40;;;;;;5053503;28;20025;-71
2022/08/01 07:00:26;;;;;;;5.43;1.60;;;41.60;81.70;;;;;;5053914;28;20029;-70
2022/08/01 07:02:58;;;;;;;4.45;1.60;;;41.40;80.30;;;;;;5053446;28;20437;-70
2022/08/01 07:05:25;;;;;;;5.97;1.50;;;40.50;80.60;;;;;;5053899;28;20028;-71
2022/08/01 07:07:51;;;;;;;8.93;2.00;;;40.00;81.80;;;;;;5053175;28;20033;-70
2022/08/01 07:10:18;;;;;;;10.52;1.85;;;41.00;81.30;;;;;;5053495;28;20021;-70
2022/08/01 07:12:44;;;;;;;9.07;1.98;;;42.70;78.20;;;;;;5053451;28;20492;-70
2022/08/01 07:15:11;;;;;;;10.65;1.60;;;42.80;76.70;;;;;;5052944;28;20507;-70
2022/08/01 07:17:42;;;;;;;9.60;2.08;;;42.60;76.70;;;;;;5053197;28;20440;-71
2022/08/01 07:20:10;;;;;;;8.50;1.55;;;43.00;75.80;;;;;;5053013;28;20056;-70
2022/08/01 07:22:37;;;;;;;7.15;1.52;;;43.30;74.80;;;;;;5053192;28;20025;-70
2022/08/01 07:25:05;;;;;;;6.88;1.60;;;43.80;74.00;;;;;;5052442;28;20382;-71
2022/08/01 07:27:31;;;;;;;9.70;1.65;;;44.40;72.10;;;;;;5052661;28;20492;-70
2022/08/01 07:29:57;;;;;;;6.80;1.75;;;43.90;70.90;;;;;;5052788;28;20025;-71
2022/08/01 07:32:23;;;;;;;5.82;1.60;;;42.90;71.80;;;;;;5052825;28;20071;-70
2022/08/01 07:34:49;;;;;;;8.55;2.17;;;42.30;72.50;;;;;;5053082;28;20180;-70
2022/08/01 07:37:15;;;;;;;5.18;1.77;;;41.60;73.60;;;;;;5052748;28;20032;-70
2022/08/01 07:39:41;;;;;;;5.20;1.65;;;41.00;73.90;;;;;;5052604;28;20400;-70
2022/08/01 07:42:07;;;;;;;5.28;1.70;;;40.40;74.50;;;;;;5051055;28;20029;-70
2022/08/01 07:44:34;;;;;;;8.48;1.70;;;40.20;74.90;;;;;;5052501;28;20017;-70
2022/08/01 07:47:00;;;;;;;5.60;1.92;;;40.20;74.70;;;;;;5051061;28;20354;-71
2022/08/01 07:49:26;;;;;;;6.30;1.98;;;40.20;74.70;;;;;;5052548;28;20151;-71
2022/08/01 07:51:54;;;;;;;7.47;1.60;;;39.80;74.40;;;;;;5052534;28;20040;-71
2022/08/01 07:54:20;;;;;;;6.55;1.70;;;39.80;74.20;;;;;;5051649;28;20350;-71
2022/08/01 07:56:46;;;;;;;8.13;1.92;;;39.60;73.70;;;;;;5051283;28;20120;-71
2022/08/01 07:59:12;;;;;;;16.25;2.40;;;39.40;78.30;;;;;;5051888;28;20099;-71
2022/08/01 08:01:38;;;;;;;7.65;2.47;;;38.70;80.80;;;;;;5051794;28;20025;-71
2022/08/01 08:04:04;;;;;;;7.88;2.25;;;38.40;81.20;;;;;;5051492;28;20028;-70
2022/08/01 08:06:30;;;;;;;5.82;1.95;;;37.90;82.30;;;;;;5051824;28;20104;-70
2022/08/01 08:08:56;;;;;;;6.72;2.17;;;36.90;84.30;;;;;;5052010;28;20033;-70
2022/08/01 08:11:22;;;;;;;7.53;1.90;;;36.30;86.00;;;;;;5051614;28;20325;-70
2022/08/01 08:13:48;;;;;;;11.40;2.75;;;35.60;87.50;;;;;;5051632;28;20063;-70
2022/08/01 08:16:14;;;;;;;7.80;2.13;;;35.20;88.80;;;;;;5051421;28;20044;-70
2022/08/01 08:18:40;;;;;;;8.60;2.28;;;35.00;90.30;;;;;;5052437;28;20049;-70
2022/08/01 08:21:06;;;;;;;8.27;2.22;;;35.40;89.60;;;;;;5052525;28;20094;-70
2022/08/01 08:26:17;;;;;;;9.02;2.35;;;35.50;88.80;;;;;;5052065;28;20063;-71
2022/08/01 08:28:43;;;;;;;10.48;2.78;;;35.10;89.70;;;;;;5052246;28;20021;-70
2022/08/01 08:31:09;;;;;;;15.55;3.75;;;35.10;90.30;;;;;;5051879;28;20071;-70
2022/08/01 08:33:36;;;;;;;12.73;3.47;;;35.40;89.60;;;;;;5051667;28;20149;-69
2022/08/01 08:36:02;;;;;;;13.93;3.42;;;35.40;89.40;;;;;;5051875;28;20117;-70
2022/08/01 08:38:28;;;;;;;6.70;2.30;;;35.60;88.20;;;;;;5051015;28;20041;-70
2022/08/01 08:40:55;;;;;;;9.65;2.28;;;35.90;88.50;;;;;;5051619;28;20090;-70
2022/08/01 08:43:24;;;;;;;6.90;2.08;;;36.10;87.70;;;;;;5051924;28;20025;-70
2022/08/01 08:45:50;;;;;;;9.35;2.55;;;36.40;87.60;;;;;;5051801;28;20036;-71
2022/08/01 08:48:17;;;;;;;6.88;2.30;;;36.70;86.40;;;;;;5052066;28;20028;-71
2022/08/01 08:50:47;;;;;;;7.80;2.30;;;36.60;86.60;;;;;;5051634;28;20037;-70
2022/08/01 08:53:15;;;;;;;10.13;2.40;;;37.10;85.80;;;;;;5051005;28;20472;-70
2022/08/01 08:55:44;;;;;;;6.18;1.98;;;37.20;84.70;;;;;;5051260;28;20477;-71
2022/08/01 08:58:14;;;;;;;5.95;1.98;;;37.20;84.70;;;;;;5051228;28;20111;-70
2022/08/01 09:00:40;;;;;;;8.52;2.03;;;36.80;85.60;;;;;;5051668;28;20097;-71
2022/08/01 09:03:07;;;;;;;7.13;2.25;;;36.70;86.00;;;;;;5051528;28;20074;-70
2022/08/01 09:05:33;;;;;;;8.48;2.33;;;36.20;86.10;;;;;;5049904;28;20025;-71
2022/08/01 09:07:59;;;;;;;8.60;2.35;;;36.30;87.30;;;;;;5051084;28;20020;-71
2022/08/01 09:10:26;;;;;;;13.73;2.20;;;36.50;87.30;;;;;;5051475;28;20052;-70
2022/08/01 09:13:14;;;;;;;8.73;2.45;;;36.70;85.80;;;;;;5051295;28;20040;-70
2022/08/01 09:15:43;;;;;;;10.45;2.60;;;36.30;85.60;;;;;;5051091;28;20091;-71
2022/08/01 09:18:28;;;;;;;7.15;2.17;;;36.30;86.30;;;;;;5051458;28;20028;-71
2022/08/01 09:21:06;;;;;;;7.53;2.42;;;36.00;86.80;;;;;;5051229;28;20031;-71
2022/08/01 09:23:39;;;;;;;6.25;1.73;;;36.10;86.50;;;;;;5049662;28;20064;-70
2022/08/01 09:26:06;;;;;;;10.30;2.40;;;36.20;85.90;;;;;;5051204;28;20117;-70
2022/08/01 09:28:33;;;;;;;13.45;2.70;;;36.40;85.50;;;;;;5051236;28;20120;-71
2022/08/01 09:31:05;;;;;;;6.07;2.17;;;36.50;85.10;;;;;;5050112;28;20416;-71
2022/08/01 09:33:55;;;;;;;8.93;2.03;;;36.60;85.30;;;;;;5051626;28;20094;-71
2022/08/01 09:36:25;;;;;;;6.50;2.10;;;36.70;85.00;;;;;;5051260;28;20099;-70
2022/08/01 09:38:54;;;;;;;9.02;2.00;;;36.50;84.80;;;;;;5051281;28;20032;-70
2022/08/01 09:41:32;;;;;;;7.32;2.03;;;36.60;84.30;;;;;;5049402;28;20029;-70
2022/08/01 09:43:59;;;;;;;5.10;1.90;;;36.20;85.60;;;;;;5050859;28;20029;-70
2022/08/01 09:46:25;;;;;;;10.25;2.25;;;35.90;85.10;;;;;;5050987;28;20029;-71
2022/08/01 09:48:59;;;;;;;7.85;1.98;;;35.90;85.90;;;;;;5051320;28;20330;-71
2022/08/01 09:51:37;;;;;;;5.20;1.98;;;35.80;86.00;;;;;;5052931;28;20381;-71
2022/08/01 09:54:05;;;;;;;6.13;1.70;;;35.90;86.50;;;;;;5054596;28;20025;-70
2022/08/01 09:56:39;;;;;;;4.85;1.90;;;35.80;85.90;;;;;;5054306;28;20112;-71
2022/08/01 09:59:06;;;;;;;10.73;2.30;;;35.60;87.40;;;;;;5054561;28;20025;-71
2022/08/01 10:01:58;;;;;;;5.75;2.00;;;35.60;87.30;;;;;;5054490;28;20029;-71
2022/08/01 10:04:24;;;;;;;8.43;2.03;;;35.60;88.30;;;;;;5053378;28;20087;-71
2022/08/01 10:06:53;;;;;;;8.05;2.40;;;35.60;86.10;;;;;;5054181;28;20037;-71
2022/08/01 10:09:36;;;;;;;7.93;1.90;;;35.10;86.30;;;;;;5054337;28;20112;-71
2022/08/01 10:12:03;;;;;;;4.95;1.90;;;34.90;87.00;;;;;;5054204;28;20492;-71
2022/08/01 10:14:30;;;;;;;5.72;2.13;;;35.00;86.50;;;;;;5054820;28;20032;-71
2022/08/01 10:16:58;;;;;;;7.57;2.28;;;35.00;87.80;;;;;;5054450;28;20032;-71
2022/08/01 10:19:26;;;;;;;7.22;2.08;;;35.00;88.10;;;;;;5054332;28;20025;-71
2022/08/01 10:21:53;;;;;;;7.53;2.40;;;34.50;88.00;;;;;;5054768;28;20029;-71
2022/08/01 10:24:24;;;;;;;8.52;2.42;;;34.50;88.50;;;;;;5054185;28;20076;-71
2022/08/01 10:26:59;;;;;;;6.00;1.98;;;34.80;88.20;;;;;;5054533;28;20025;-71
2022/08/01 10:29:26;;;;;;;5.43;1.70;;;34.80;89.50;;;;;;5054203;28;20079;-71
2022/08/01 10:31:53;;;;;;;7.22;2.15;;;34.90;89.80;;;;;;5054329;28;20059;-71
2022/08/01 10:34:20;;;;;;;11.85;2.88;;;35.00;89.20;;;;;;5053849;28;20499;-71
2022/08/01 10:36:47;;;;;;;7.30;1.90;;;35.10;88.50;;;;;;5054221;28;20426;-71
2022/08/01 10:39:14;;;;;;;11.07;2.00;;;35.20;89.10;;;;;;5054168;28;20060;-71
2022/08/01 10:41:40;;;;;;;6.13;2.03;;;35.30;89.10;;;;;;5054557;28;20029;-71
2022/08/01 10:44:08;;;;;;;7.35;2.00;;;35.30;90.10;;;;;;5052455;28;20127;-71
2022/08/01 10:46:48;;;;;;;7.85;2.03;;;35.20;89.50;;;;;;5053943;28;20043;-71
2022/08/01 10:49:17;;;;;;;7.07;2.28;;;35.20;88.90;;;;;;5054383;28;20106;-70
2022/08/01 10:51:44;;;;;;;7.05;1.98;;;35.10;89.10;;;;;;5054207;28;20075;-71
2022/08/01 10:54:12;;;;;;;8.57;1.92;;;35.10;89.80;;;;;;5053810;28;20025;-71
2022/08/01 10:56:50;;;;;;;8.80;2.75;;;35.00;87.10;;;;;;5053888;28;20044;-70
2022/08/01 10:59:29;;;;;;;8.80;2.13;;;35.00;88.30;;;;;;5051442;28;20021;-71
2022/08/01 11:02:05;;;;;;;4.57;1.55;;;34.90;89.20;;;;;;5051220;28;20423;-71
2022/08/01 11:05:09;;;;;;;6.30;2.00;;;35.00;87.80;;;;;;5053350;28;20025;-71
2022/08/01 11:07:45;;;;;;;5.80;1.92;;;35.00;87.40;;;;;;5054045;28;20141;-71
2022/08/01 11:10:25;;;;;;;5.55;1.80;;;34.90;87.90;;;;;;5052035;28;20040;-70
2022/08/01 11:12:52;;;;;;;18.98;2.30;;;34.70;88.00;;;;;;5053359;28;20099;-70
2022/08/01 11:15:27;;;;;;;9.52;2.00;;;34.50;89.90;;;;;;5053000;28;20043;-70
2022/08/01 11:17:54;;;;;;;8.95;2.20;;;34.60;89.20;;;;;;5053351;28;20118;-70
2022/08/01 11:20:29;;;;;;;6.47;2.10;;;34.70;89.40;;;;;;5053679;28;20560;-70
2022/08/01 11:23:03;;;;;;;9.43;2.17;;;34.90;89.10;;;;;;5054055;28;20074;-70
2022/08/01 11:25:46;;;;;;;6.65;2.15;;;34.90;88.60;;;;;;5053492;28;20045;-70
2022/08/01 11:28:18;;;;;;;8.90;2.10;;;34.70;88.60;;;;;;5054008;28;20100;-70
2022/08/01 11:30:46;;;;;;;8.18;1.90;;;34.80;89.10;;;;;;5053028;28;20048;-70
2022/08/01 11:33:14;;;;;;;5.50;1.98;;;34.80;88.70;;;;;;5053382;28;20480;-70
2022/08/01 11:36:17;;;;;;;7.95;2.08;;;34.80;87.90;;;;;;5053418;28;20063;-70
2022/08/01 11:38:46;;;;;;;5.63;1.85;;;34.80;88.60;;;;;;5053659;28;20118;-70
2022/08/01 11:41:23;;;;;;;6.85;2.05;;;34.60;90.00;;;;;;5053069;28;20064;-71
2022/08/01 11:44:06;;;;;;;6.47;1.92;;;34.70;90.20;;;;;;5053598;28;20440;-70
2022/08/01 11:47:09;;;;;;;6.40;2.00;;;34.60;90.30;;;;;;5053330;28;20397;-71
2022/08/01 11:49:40;;;;;;;5.13;2.03;;;34.60;90.40;;;;;;5052862;28;20021;-71
2022/08/01 11:52:14;;;;;;;6.63;2.00;;;34.90;90.50;;;;;;5053100;28;20025;-70
2022/08/01 11:54:43;;;;;;;5.78;2.08;;;34.90;90.30;;;;;;5052661;28;20028;-71
2022/08/01 11:57:23;;;;;;;6.43;1.70;;;35.00;88.00;;;;;;5052666;28;20527;-71
2022/08/01 11:59:55;;;;;;;5.55;2.30;;;34.90;87.30;;;;;;5052898;28;20023;-71
2022/08/01 12:02:29;;;;;;;5.45;1.80;;;34.90;85.80;;;;;;5052669;28;20377;-71
2022/08/01 12:05:01;;;;;;;10.57;2.28;;;34.70;88.20;;;;;;5052888;28;20053;-70
2022/08/01 12:07:31;;;;;;;15.02;2.50;;;34.60;88.10;;;;;;5052367;28;20021;-71
2022/08/01 12:10:05;;;;;;;6.68;1.83;;;34.60;88.20;;;;;;5052588;28;20040;-70
2022/08/01 12:12:33;;;;;;;6.45;1.83;;;34.80;88.60;;;;;;5052483;28;20024;-70
2022/08/01 12:15:03;;;;;;;8.75;2.10;;;34.80;87.30;;;;;;5052405;28;20469;-71
2022/08/01 12:17:30;;;;;;;8.38;1.80;;;34.70;87.90;;;;;;5052512;28;20059;-70
2022/08/01 12:19:56;;;;;;;9.00;2.08;;;34.50;89.60;;;;;;5053048;28;20025;-70
2022/08/01 12:22:24;;;;;;;8.80;2.20;;;34.50;89.60;;;;;;5052783;28;20052;-70
2022/08/01 12:24:50;;;;;;;9.35;2.30;;;34.60;89.10;;;;;;5052358;28;20131;-70
2022/08/01 12:27:29;;;;;;;;;;;34.70;90.10;;;;;;5051559;28;20043;-69
2022/08/01 12:29:57;;;;;;;5.38;2.00;;;34.70;90.20;;;;;;5052689;28;20456;-70
2022/08/01 12:32:30;;;;;;;7.07;2.08;;;34.70;90.60;;;;;;5052466;28;20481;-70
2022/08/01 12:35:01;;;;;;;3.45;1.83;;;34.80;91.30;;;;;;5053102;28;20094;-69
2022/08/01 12:37:27;;;;;;;6.60;1.90;;;34.90;91.20;;;;;;5052803;28;20040;-70
2022/08/01 12:39:53;;;;;;;5.43;1.75;;;34.90;91.40;;;;;;5053060;28;20023;-70
2022/08/01 12:42:20;;;;;;;8.77;2.10;;;34.90;91.40;;;;;;5052614;28;20147;-70
2022/08/01 12:44:50;;;;;;;6.63;1.90;;;35.00;91.50;;;;;;5052296;28;20021;-70
2022/08/01 12:47:20;;;;;;;7.72;1.90;;;34.80;91.20;;;;;;5052793;28;20036;-70
2022/08/01 12:49:46;;;;;;;5.63;1.90;;;34.60;91.40;;;;;;5051782;28;20029;-70
2022/08/01 12:52:14;;;;;;;9.68;2.20;;;34.60;91.50;;;;;;5051882;28;20029;-70
2022/08/01 12:55:08;;;;;;;13.07;2.28;;;34.60;91.10;;;;;;5051386;28;20118;-69
2022/08/01 12:57:37;;;;;;;5.80;1.90;;;34.50;90.70;;;;;;5049505;28;20124;-69
2022/08/01 13:00:13;;;;;;;5.55;2.03;;;34.30;90.60;;;;;;5051603;28;20029;-70
2022/08/01 13:02:40;;;;;;;15.10;2.22;;;34.30;90.60;;;;;;5051699;28;20214;-69